NCAR-RAP Real-Time Weather Data

Output produced by METARs form (20 February 2019  17:06 UTC)
found at http://weather.rap.ucar.edu/surface/
 
RJTO 200700Z VRB02KT 9999 FEW030 17/10 Q1009
RJTO 200600Z VRB02KT 9999 FEW030 19/08 Q1009
RJTO 200500Z 05008KT 9999 FEW030 18/09 Q1009
RJTO 200400Z 04011KT 9999 FEW030 16/11 Q1009
RJTO 200300Z VRB03KT 9999 FEW030 19/12 Q1010
RJTO 200200Z 21006KT 160V260 9999 FEW020 19/11 Q1010
RJTO 200100Z 20017KT 9999 FEW020 18/12 Q1010
RJTO 200000Z 21014KT 9999 FEW020 17/13 Q1010
RJTO 192300Z 19012KT 9999 FEW035 SCT/// 17/12 Q1009
RJTO 190700Z 25006KT 190V300 8000 -RA FEW015 BKN020 BKN030 12/09 Q1019
RJTO 190600Z 23012KT 9999 -RA FEW025 BKN060 14/06 Q1020
RJTO 190500Z 22015KT 190V260 9999 -RA FEW030 SCT050 BKN090 15/08 Q1020
RJTO 190400Z 22015KT 9999 -RA FEW030 SCT070 BKN090 15/07 Q1021
RJTO 190300Z 21012KT 9999 FEW030 BKN070 15/08 Q1023
RJTO 190200Z 22012KT 9999 -RA FEW030 BKN080 15/07 Q1024
RJTO 190100Z 22009KT 190V260 9999 FEW030 BKN080 BKN/// 15/07 Q1025
RJTO 190000Z 23007KT 190V270 9999 FEW025 SCT090 BKN/// 14/06 Q1026
RJTO 182300Z 24006KT 200V290 9999 FEW025 BKN090 BKN150 13/06 Q1026
RJTO 180700Z 24004KT 170V330 9999 FEW030 13/05 Q1023
RJTO 180600Z VRB03KT 9999 FEW030 13/04 Q1022